createdAt,value
2018-06-25T00:04:14.341Z,15.70
2018-06-25T00:08:48.639Z,15.70
2018-06-25T00:13:22.941Z,15.80
2018-06-25T00:17:57.294Z,15.80
2018-06-25T00:22:31.667Z,15.80
2018-06-25T00:27:05.918Z,15.70
2018-06-25T00:31:40.109Z,15.70
2018-06-25T00:36:14.403Z,15.70
2018-06-25T00:40:48.858Z,15.70
2018-06-25T00:45:23.184Z,15.70
2018-06-25T00:49:57.490Z,15.70
2018-06-25T00:54:31.977Z,15.70
2018-06-25T00:59:17.499Z,15.70
2018-06-25T01:03:52.258Z,15.70
2018-06-25T01:13:00.738Z,15.80
2018-06-25T01:17:35.213Z,15.80
2018-06-25T01:22:10.286Z,15.80
2018-06-25T01:26:44.882Z,15.80
2018-06-25T01:31:19.401Z,15.80
2018-06-25T01:35:53.750Z,15.80
2018-06-25T01:40:28.262Z,15.80
2018-06-25T01:45:02.820Z,15.70
2018-06-25T01:49:37.444Z,15.80
2018-06-25T01:54:11.990Z,15.80
2018-06-25T01:58:46.310Z,15.80
2018-06-25T02:03:20.846Z,15.80
2018-06-25T02:07:55.373Z,15.80
2018-06-25T02:12:30.122Z,15.80
2018-06-25T02:17:04.618Z,15.80
2018-06-25T02:21:39.709Z,15.80
2018-06-25T02:26:13.926Z,15.90
2018-06-25T02:30:48.242Z,15.80
2018-06-25T02:35:22.613Z,15.80
2018-06-25T02:39:56.994Z,15.70
2018-06-25T02:44:31.326Z,15.70
2018-06-25T02:49:05.890Z,15.70
2018-06-25T02:53:40.354Z,15.70
2018-06-25T02:58:14.716Z,15.70
2018-06-25T03:02:49.237Z,15.70
2018-06-25T03:07:23.560Z,15.60
2018-06-25T03:11:58.219Z,15.70
2018-06-25T03:16:32.790Z,15.70
2018-06-25T03:21:07.248Z,15.70
2018-06-25T03:30:15.865Z,15.60
2018-06-25T03:34:50.206Z,15.60
2018-06-25T03:39:25.157Z,15.50
2018-06-25T03:43:59.658Z,15.50
2018-06-25T03:48:33.884Z,15.50
2018-06-25T03:53:08.477Z,15.50
2018-06-25T03:57:43.043Z,15.60
2018-06-25T04:02:17.511Z,15.60
2018-06-25T04:06:52.295Z,15.60
2018-06-25T04:11:27.558Z,15.60
2018-06-25T04:16:02.066Z,15.60
2018-06-25T04:20:36.545Z,15.60
2018-06-25T04:25:11.118Z,15.60
2018-06-25T04:29:45.697Z,15.70
2018-06-25T04:34:20.269Z,15.70
2018-06-25T04:38:54.506Z,15.70
2018-06-25T04:43:28.989Z,15.60
2018-06-25T04:48:03.402Z,15.60
2018-06-25T04:52:37.769Z,15.50
2018-06-25T04:57:12.322Z,15.50
2018-06-25T05:01:46.758Z,15.50
2018-06-25T05:06:25.177Z,15.40
2018-06-25T05:10:59.799Z,15.40
2018-06-25T05:15:35.405Z,15.30
2018-06-25T05:20:09.974Z,15.40
2018-06-25T05:24:44.510Z,15.40
2018-06-25T05:29:18.850Z,15.60
2018-06-25T05:33:53.070Z,15.70
2018-06-25T05:38:27.372Z,15.90
2018-06-25T05:43:01.613Z,16.30
2018-06-25T05:47:36.513Z,16.50
2018-06-25T05:52:10.955Z,16.80
2018-06-25T05:56:45.409Z,16.90
2018-06-25T06:01:19.742Z,17.20
2018-06-25T06:05:54.117Z,17.50
2018-06-25T06:10:29.074Z,17.60
2018-06-25T06:15:03.669Z,17.50
2018-06-25T06:19:38.881Z,17.60
2018-06-25T06:24:13.262Z,17.80
2018-06-25T06:28:47.714Z,17.60
2018-06-25T06:33:23.074Z,17.50
2018-06-25T06:37:58.188Z,17.60
2018-06-25T06:42:32.575Z,17.70
2018-06-25T06:47:07.029Z,17.70
2018-06-25T06:51:41.399Z,17.60
2018-06-25T06:56:15.848Z,17.60
2018-06-25T07:00:50.233Z,17.80
2018-06-25T07:05:24.797Z,17.90
2018-06-25T07:09:59.103Z,18.10
2018-06-25T07:14:33.870Z,18.30
2018-06-25T07:19:08.398Z,18.50
2018-06-25T07:23:43.269Z,18.60
2018-06-25T07:28:17.669Z,18.60
2018-06-25T07:32:52.562Z,18.60
2018-06-25T07:37:27.074Z,18.50
2018-06-25T07:42:01.450Z,18.40
2018-06-25T07:46:36.725Z,18.40
2018-06-25T07:51:11.442Z,18.50
2018-06-25T07:55:46.573Z,18.50
2018-06-25T08:00:25.025Z,18.50
2018-06-25T08:04:59.998Z,18.50
2018-06-25T08:09:34.913Z,18.40
2018-06-25T08:14:15.988Z,18.80
2018-06-25T08:18:50.890Z,19.30
2018-06-25T08:23:25.476Z,19.50
2018-06-25T08:28:00.096Z,19.60
2018-06-25T08:32:35.738Z,19.50
2018-06-25T08:37:11.522Z,19.40
2018-06-25T08:41:46.077Z,19.60
2018-06-25T08:46:22.722Z,19.70
2018-06-25T08:50:57.858Z,19.60
2018-06-25T08:55:32.136Z,19.70
2018-06-25T09:00:07.489Z,20.20
2018-06-25T09:04:43.025Z,20.70
2018-06-25T09:09:17.426Z,20.40
2018-06-25T09:13:52.489Z,20.10
2018-06-25T09:18:26.765Z,19.80
2018-06-25T09:23:01.933Z,19.40
2018-06-25T09:27:41.675Z,19.60
2018-06-25T09:32:16.564Z,20.10
2018-06-25T09:36:51.057Z,20.90
2018-06-25T09:41:26.291Z,21.80
2018-06-25T09:46:00.897Z,22.10
2018-06-25T09:50:35.372Z,21.80
2018-06-25T09:55:09.865Z,21.60
2018-06-25T09:59:44.461Z,23.20
2018-06-25T10:04:19.465Z,24.80
2018-06-25T10:08:54.050Z,24.10
2018-06-25T10:13:28.461Z,25.00
2018-06-25T10:18:02.955Z,24.90
2018-06-25T10:22:37.448Z,24.80
2018-06-25T10:27:11.808Z,24.20
2018-06-25T10:31:46.090Z,23.40
2018-06-25T10:36:20.676Z,22.90
2018-06-25T10:40:55.142Z,23.10
2018-06-25T10:45:29.708Z,23.20
2018-06-25T10:50:04.172Z,23.00
2018-06-25T10:54:38.762Z,23.10
2018-06-25T10:59:13.328Z,24.10
2018-06-25T11:03:47.746Z,26.00
2018-06-25T11:08:22.085Z,28.00
2018-06-25T11:12:57.199Z,28.30
2018-06-25T11:17:32.864Z,28.70
2018-06-25T11:22:07.264Z,27.60
2018-06-25T11:26:43.276Z,27.80
2018-06-25T11:31:19.977Z,28.40
2018-06-25T11:35:55.030Z,28.30
2018-06-25T11:40:29.741Z,28.50
2018-06-25T11:45:04.111Z,29.60
2018-06-25T11:49:38.785Z,29.70
2018-06-25T11:54:13.231Z,29.60
2018-06-25T11:58:49.032Z,27.90
2018-06-25T12:03:24.117Z,27.60
2018-06-25T12:12:37.554Z,28.20
2018-06-25T12:17:12.726Z,27.70
2018-06-25T12:21:47.402Z,29.90
2018-06-25T12:26:22.456Z,29.70
2018-06-25T12:30:57.667Z,28.20
2018-06-25T12:35:34.546Z,28.40
2018-06-25T12:40:09.065Z,30.00
2018-06-25T12:44:44.004Z,29.80
2018-06-25T12:49:21.193Z,28.30
2018-06-25T12:53:56.493Z,27.00
2018-06-25T12:58:31.186Z,26.20
2018-06-25T13:03:06.256Z,26.00
2018-06-25T13:07:40.630Z,25.30
2018-06-25T13:12:14.933Z,24.90
2018-06-25T13:16:49.346Z,25.30
2018-06-25T13:21:23.761Z,26.40
2018-06-25T13:25:58.075Z,25.80
2018-06-25T13:30:32.737Z,25.10
2018-06-25T13:35:07.426Z,25.60
2018-06-25T13:39:41.869Z,25.50
2018-06-25T13:44:16.353Z,25.10
2018-06-25T13:48:50.581Z,24.50
2018-06-25T13:53:25.841Z,24.10
2018-06-25T13:58:00.256Z,23.90
2018-06-25T14:02:34.809Z,24.10
2018-06-25T14:07:09.181Z,24.60
2018-06-25T14:11:43.585Z,25.20
2018-06-25T14:16:17.999Z,25.10
2018-06-25T14:20:52.469Z,24.70
2018-06-25T14:25:26.871Z,24.20
2018-06-25T14:34:35.474Z,24.30
2018-06-25T14:39:10.846Z,24.50
2018-06-25T14:43:45.172Z,24.30
2018-06-25T14:48:19.426Z,24.10
2018-06-25T14:52:53.881Z,23.90
2018-06-25T14:57:29.318Z,23.90
2018-06-25T15:02:04.213Z,24.00
2018-06-25T15:06:55.540Z,24.10
2018-06-25T15:11:33.390Z,24.00
2018-06-25T15:16:09.030Z,23.80
2018-06-25T15:20:44.511Z,23.80
2018-06-25T15:25:26.673Z,23.80
2018-06-25T15:30:05.117Z,23.70
2018-06-25T15:34:47.642Z,23.60
2018-06-25T15:39:22.541Z,23.20
2018-06-25T15:43:56.940Z,23.30
2018-06-25T15:48:31.257Z,23.70
2018-06-25T15:53:05.634Z,23.90
2018-06-25T15:57:40.283Z,23.40
2018-06-25T16:02:14.865Z,23.20
2018-06-25T16:06:49.382Z,23.10
2018-06-25T16:11:28.919Z,22.70
2018-06-25T16:16:03.795Z,22.70
2018-06-25T16:20:38.285Z,22.90
2018-06-25T16:25:12.705Z,23.50
2018-06-25T16:29:47.072Z,24.10
2018-06-25T16:34:21.585Z,24.50
2018-06-25T16:38:56.046Z,24.60
2018-06-25T16:43:31.161Z,24.20
2018-06-25T16:48:06.053Z,23.60
2018-06-25T16:52:40.567Z,23.20
2018-06-25T16:57:14.970Z,23.00
2018-06-25T17:01:49.641Z,23.00
2018-06-25T17:06:24.150Z,23.00
2018-06-25T17:11:00.534Z,23.10
2018-06-25T17:15:36.199Z,23.20
2018-06-25T17:20:11.062Z,23.30
2018-06-25T17:24:45.676Z,23.50
2018-06-25T17:29:20.090Z,23.50
2018-06-25T17:33:54.425Z,23.40
2018-06-25T17:38:28.792Z,23.00
2018-06-25T17:43:03.409Z,22.70
2018-06-25T17:47:38.005Z,22.40
2018-06-25T17:52:13.954Z,22.50
2018-06-25T17:56:49.582Z,22.50
2018-06-25T18:01:24.196Z,22.60
2018-06-25T18:05:58.649Z,22.20
2018-06-25T18:10:33.146Z,21.70
2018-06-25T18:15:07.849Z,21.40
2018-06-25T18:19:43.430Z,21.10
2018-06-25T18:24:18.134Z,21.00
2018-06-25T18:28:52.621Z,20.90
2018-06-25T18:33:28.395Z,20.90
2018-06-25T18:38:02.721Z,20.90
2018-06-25T18:42:37.017Z,20.80
2018-06-25T18:47:11.330Z,20.70
2018-06-25T18:51:45.642Z,20.60
2018-06-25T18:56:20.031Z,20.40
2018-06-25T19:00:54.515Z,20.30
2018-06-25T19:05:28.905Z,20.20
2018-06-25T19:10:03.441Z,20.10
2018-06-25T19:14:37.899Z,20.00
2018-06-25T19:19:12.335Z,19.90
2018-06-25T19:23:46.694Z,19.80
2018-06-25T19:28:21.448Z,19.70
2018-06-25T19:32:55.892Z,19.50
2018-06-25T19:37:30.431Z,19.40
2018-06-25T19:42:04.953Z,19.20
2018-06-25T19:46:39.390Z,19.00
2018-06-25T19:51:13.900Z,18.90
2018-06-25T19:55:49.345Z,18.80
2018-06-25T20:00:23.661Z,18.60
2018-06-25T20:04:59.328Z,18.50
2018-06-25T20:09:34.055Z,18.30
2018-06-25T20:14:08.760Z,18.20
2018-06-25T20:23:17.540Z,18.00
2018-06-25T20:27:52.505Z,17.90
2018-06-25T20:32:26.952Z,17.70
2018-06-25T20:37:01.258Z,17.60
2018-06-25T20:46:10.742Z,17.30
2018-06-25T20:50:45.089Z,17.20
2018-06-25T20:55:20.501Z,17.00
2018-06-25T20:59:55.795Z,16.70
2018-06-25T21:04:30.598Z,16.60
2018-06-25T21:09:07.725Z,16.50
2018-06-25T21:13:42.310Z,16.40
2018-06-25T21:18:16.606Z,16.30
2018-06-25T21:27:25.721Z,16.10
2018-06-25T21:32:00.110Z,15.90
2018-06-25T21:36:34.466Z,15.80
2018-06-25T21:41:08.809Z,15.70
2018-06-25T21:45:43.334Z,15.60
2018-06-25T21:50:17.833Z,15.40
2018-06-25T21:54:52.338Z,15.30
2018-06-25T21:59:26.769Z,15.20
2018-06-25T22:04:01.526Z,15.20
2018-06-25T22:08:36.290Z,15.10
2018-06-25T22:13:11.029Z,15.00
2018-06-25T22:17:45.650Z,14.90
2018-06-25T22:22:20.101Z,15.00
2018-06-25T22:26:55.322Z,14.90
2018-06-25T22:31:29.577Z,14.70
2018-06-25T22:36:05.190Z,14.70
2018-06-25T22:40:39.614Z,14.60
2018-06-25T22:45:14.156Z,14.50
2018-06-25T22:49:49.049Z,14.40
2018-06-25T22:54:23.450Z,14.30
2018-06-25T22:58:57.965Z,14.30
2018-06-25T23:03:32.623Z,14.20
2018-06-25T23:08:07.317Z,14.10
2018-06-25T23:12:41.853Z,14.00
2018-06-25T23:17:16.850Z,13.90
2018-06-25T23:21:51.290Z,13.90
2018-06-25T23:26:25.928Z,13.80
2018-06-25T23:31:00.294Z,13.70
2018-06-25T23:35:34.778Z,13.60
2018-06-25T23:40:09.262Z,13.50
2018-06-25T23:44:43.774Z,13.40
2018-06-25T23:49:18.106Z,13.40
2018-06-25T23:53:52.610Z,13.30
2018-06-25T23:58:26.845Z,13.40
